createdAt,value
2022-10-17T00:00:31.993Z,101137.66
2022-10-17T00:02:58.609Z,101136.03
2022-10-17T00:05:25.367Z,101137.22
2022-10-17T00:07:52.722Z,101144.63
2022-10-17T00:10:19.980Z,101139.44
2022-10-17T00:12:47.434Z,101133.59
2022-10-17T00:15:18.001Z,101144.72
2022-10-17T00:17:44.888Z,101147.56
2022-10-17T00:20:12.356Z,101145.66
2022-10-17T00:22:38.919Z,101141.75
2022-10-17T00:25:05.967Z,101153.88
2022-10-17T00:27:39.171Z,101150.22
2022-10-17T00:30:07.690Z,101159.00
2022-10-17T00:32:34.313Z,101150.69
2022-10-17T00:35:01.238Z,101150.16
2022-10-17T00:37:27.915Z,101147.69
2022-10-17T00:39:55.008Z,101129.50
2022-10-17T00:42:22.180Z,101133.44
2022-10-17T00:44:48.769Z,101133.25
2022-10-17T00:47:22.586Z,101129.50
2022-10-17T00:49:49.258Z,101126.09
2022-10-17T00:52:20.535Z,101122.84
2022-10-17T00:54:53.071Z,101114.94
2022-10-17T00:57:20.045Z,101120.81
2022-10-17T00:59:52.895Z,101115.19
2022-10-17T01:02:21.769Z,101108.25
2022-10-17T01:04:52.206Z,101109.44
2022-10-17T01:07:18.872Z,101121.88
2022-10-17T01:09:47.496Z,101109.88
2022-10-17T01:12:22.081Z,101123.56
2022-10-17T01:15:22.813Z,101118.13
2022-10-17T01:18:02.085Z,101109.00
2022-10-17T01:20:50.082Z,101107.66
2022-10-17T01:23:25.066Z,101108.75
2022-10-17T01:26:09.839Z,101100.47
2022-10-17T01:29:05.358Z,101084.72
2022-10-17T01:31:45.800Z,101089.91
2022-10-17T01:34:15.526Z,101088.97
2022-10-17T01:36:59.311Z,101085.72
2022-10-17T01:39:46.989Z,101084.91
2022-10-17T01:42:14.988Z,101077.25
2022-10-17T01:45:02.568Z,101076.69
2022-10-17T01:47:33.925Z,101081.34
2022-10-17T01:50:14.091Z,101088.69
2022-10-17T01:52:55.711Z,101073.81
2022-10-17T01:55:41.531Z,101084.63
2022-10-17T01:58:24.721Z,101078.03
2022-10-17T02:00:53.068Z,101076.16
2022-10-17T02:03:21.867Z,101074.56
2022-10-17T02:05:48.749Z,101067.53
2022-10-17T02:08:25.724Z,101066.06
2022-10-17T02:11:01.824Z,101065.19
2022-10-17T02:13:50.386Z,101063.06
2022-10-17T02:16:38.193Z,101064.78
2022-10-17T02:19:34.352Z,101065.22
2022-10-17T02:22:24.450Z,101055.88
2022-10-17T02:25:09.398Z,101053.31
2022-10-17T02:27:52.661Z,101051.97
2022-10-17T02:30:34.190Z,101059.25
2022-10-17T02:33:12.115Z,101053.09
2022-10-17T02:35:44.635Z,101052.09
2022-10-17T02:38:12.967Z,101055.75
2022-10-17T02:40:40.959Z,101050.22
2022-10-17T02:43:07.847Z,101051.16
2022-10-17T02:45:37.700Z,101046.69
2022-10-17T02:48:26.705Z,101044.81
2022-10-17T02:51:07.655Z,101048.13
2022-10-17T02:53:46.419Z,101038.03
2022-10-17T02:56:19.275Z,101037.16
2022-10-17T02:58:51.790Z,101048.56
2022-10-17T03:01:19.798Z,101042.13
2022-10-17T03:03:46.675Z,101040.25
2022-10-17T03:06:13.478Z,101036.34
2022-10-17T03:08:40.106Z,101045.28
2022-10-17T03:11:07.008Z,101043.44
2022-10-17T03:13:36.349Z,101036.66
2022-10-17T03:16:07.763Z,101031.41
2022-10-17T03:18:34.892Z,101038.94
2022-10-17T03:21:03.275Z,101041.81
2022-10-17T03:23:30.020Z,101037.81
2022-10-17T03:25:57.019Z,101038.44
2022-10-17T03:28:24.258Z,101040.19
2022-10-17T03:30:51.068Z,101037.31
2022-10-17T03:33:17.708Z,101036.88
2022-10-17T03:35:44.434Z,101041.56
2022-10-17T03:38:11.118Z,101041.72
2022-10-17T03:40:38.025Z,101045.72
2022-10-17T03:43:04.799Z,101039.16
2022-10-17T03:45:32.141Z,101040.91
2022-10-17T03:47:59.723Z,101044.16
2022-10-17T03:50:26.511Z,101045.13
2022-10-17T03:52:53.129Z,101050.44
2022-10-17T03:55:19.862Z,101044.78
2022-10-17T03:57:47.224Z,101047.69
2022-10-17T04:00:16.133Z,101044.69
2022-10-17T04:02:48.834Z,101055.31
2022-10-17T04:05:18.574Z,101055.06
2022-10-17T04:07:45.977Z,101060.63
2022-10-17T04:10:14.114Z,101057.94
2022-10-17T04:12:42.253Z,101055.97
2022-10-17T04:15:09.868Z,101053.59
2022-10-17T04:17:38.328Z,101046.72
2022-10-17T04:20:06.832Z,101052.66
2022-10-17T04:22:34.220Z,101049.50
2022-10-17T04:25:01.059Z,101058.41
2022-10-17T04:27:33.624Z,101059.44
2022-10-17T04:30:01.399Z,101059.22
2022-10-17T04:32:31.023Z,101055.47
2022-10-17T04:35:06.309Z,101054.16
2022-10-17T04:37:33.384Z,101057.41
2022-10-17T04:40:03.300Z,101052.47
2022-10-17T04:42:32.496Z,101048.44
2022-10-17T04:44:59.424Z,101056.28
2022-10-17T04:47:26.957Z,101053.47
2022-10-17T04:49:55.133Z,101054.78
2022-10-17T04:52:22.550Z,101052.94
2022-10-17T04:54:50.095Z,101054.50
2022-10-17T04:57:18.676Z,101055.91
2022-10-17T04:59:54.242Z,101053.81
2022-10-17T05:02:35.428Z,101059.69
2022-10-17T05:05:03.326Z,101056.72
2022-10-17T05:07:30.109Z,101056.19
2022-10-17T05:10:02.803Z,101068.31
2022-10-17T05:12:31.225Z,101059.69
2022-10-17T05:14:58.341Z,101054.41
2022-10-17T05:17:26.377Z,101060.16
2022-10-17T05:19:52.976Z,101055.34
2022-10-17T05:22:19.641Z,101054.44
2022-10-17T05:24:46.851Z,101058.75
2022-10-17T05:27:13.690Z,101057.03
2022-10-17T05:29:40.426Z,101058.75
2022-10-17T05:32:17.557Z,101049.84
2022-10-17T05:34:44.539Z,101047.25
2022-10-17T05:37:11.477Z,101053.81
2022-10-17T05:39:39.161Z,101046.56
2022-10-17T05:42:07.241Z,101049.38
2022-10-17T05:44:35.073Z,101052.84
2022-10-17T05:47:02.455Z,101049.06
2022-10-17T05:49:40.055Z,101054.09
2022-10-17T05:52:12.236Z,101047.50
2022-10-17T05:54:53.716Z,101055.09
2022-10-17T05:57:20.690Z,101055.81
2022-10-17T05:59:47.712Z,101059.25
2022-10-17T06:02:19.114Z,101063.22
2022-10-17T06:04:46.616Z,101058.47
2022-10-17T06:07:14.595Z,101060.25
2022-10-17T06:09:43.420Z,101062.22
2022-10-17T06:12:10.727Z,101071.25
2022-10-17T06:14:37.422Z,101075.22
2022-10-17T06:17:12.109Z,101074.34
2022-10-17T06:19:44.793Z,101071.75
2022-10-17T06:22:14.072Z,101086.47
2022-10-17T06:24:40.951Z,101086.97
2022-10-17T06:27:11.016Z,101081.72
2022-10-17T06:29:39.768Z,101087.03
2022-10-17T06:32:09.856Z,101091.59
2022-10-17T06:34:40.547Z,101097.56
2022-10-17T06:37:07.172Z,101096.19
2022-10-17T06:39:36.046Z,101104.97
2022-10-17T06:42:10.608Z,101099.31
2022-10-17T06:44:49.924Z,101098.31
2022-10-17T06:47:23.237Z,101097.59
2022-10-17T06:49:56.816Z,101103.72
2022-10-17T06:52:31.822Z,101098.47
2022-10-17T06:55:21.341Z,101106.25
2022-10-17T06:58:17.102Z,101108.66
2022-10-17T07:01:11.148Z,101109.53
2022-10-17T07:03:38.552Z,101115.25
2022-10-17T07:06:05.489Z,101115.56
2022-10-17T07:08:32.395Z,101117.25
2022-10-17T07:11:13.614Z,101112.81
2022-10-17T07:13:40.668Z,101106.59
2022-10-17T07:16:08.219Z,101120.69
2022-10-17T07:18:36.291Z,101125.09
2022-10-17T07:21:04.040Z,101127.78
2022-10-17T07:23:31.166Z,101131.41
2022-10-17T07:26:03.080Z,101127.00
2022-10-17T07:28:29.942Z,101124.31
2022-10-17T07:31:12.662Z,101124.28
2022-10-17T07:33:39.459Z,101126.59
2022-10-17T07:36:06.396Z,101116.22
2022-10-17T07:38:33.867Z,101124.31
2022-10-17T07:41:03.040Z,101133.00
2022-10-17T07:43:30.811Z,101123.03
2022-10-17T07:46:01.560Z,101125.41
2022-10-17T07:48:30.488Z,101130.22
2022-10-17T07:50:57.334Z,101118.72
2022-10-17T07:53:24.036Z,101121.63
2022-10-17T07:55:51.425Z,101117.00
2022-10-17T07:58:18.255Z,101118.66
2022-10-17T08:00:48.439Z,101133.53
2022-10-17T08:03:15.351Z,101124.00
2022-10-17T08:05:42.050Z,101126.56
2022-10-17T08:08:08.770Z,101130.47
2022-10-17T08:10:35.482Z,101132.22
2022-10-17T08:13:02.294Z,101122.69
2022-10-17T08:15:31.784Z,101129.06
2022-10-17T08:17:59.635Z,101128.69
2022-10-17T08:20:26.621Z,101124.72
2022-10-17T08:22:54.367Z,101123.97
2022-10-17T08:25:21.752Z,101125.47
2022-10-17T08:27:48.743Z,101131.94
2022-10-17T08:30:15.792Z,101119.50
2022-10-17T08:32:43.062Z,101124.34
2022-10-17T08:35:10.246Z,101133.94
2022-10-17T08:37:37.005Z,101135.28
2022-10-17T08:40:04.237Z,101121.53
2022-10-17T08:42:49.382Z,101126.31
2022-10-17T08:45:48.823Z,101126.72
2022-10-17T08:48:20.438Z,101129.31
2022-10-17T08:51:02.967Z,101128.88
2022-10-17T08:53:36.679Z,101121.78
2022-10-17T08:56:19.467Z,101125.84
2022-10-17T08:58:51.757Z,101131.25
2022-10-17T09:01:42.275Z,101127.03
2022-10-17T09:04:46.671Z,101136.53
2022-10-17T09:07:13.236Z,101130.13
2022-10-17T09:10:03.178Z,101126.25
2022-10-17T09:12:49.997Z,101125.34
2022-10-17T09:15:46.091Z,101108.28
2022-10-17T09:18:23.924Z,101111.97
2022-10-17T09:20:58.033Z,101123.50
2022-10-17T09:23:37.973Z,101117.13
2022-10-17T09:26:11.266Z,101108.16
2022-10-17T09:28:40.941Z,101113.66
2022-10-17T09:31:23.041Z,101109.47
2022-10-17T09:33:54.638Z,101113.50
2022-10-17T09:36:25.881Z,101118.88
2022-10-17T09:38:55.542Z,101121.06
2022-10-17T09:41:51.532Z,101123.75
2022-10-17T09:44:58.156Z,101121.63
2022-10-17T09:48:01.016Z,101123.25
2022-10-17T09:50:31.364Z,101128.91
2022-10-17T09:53:08.579Z,101122.28
2022-10-17T09:55:42.395Z,101120.91
2022-10-17T09:58:10.391Z,101119.41
2022-10-17T10:00:43.007Z,101118.09
2022-10-17T10:03:09.599Z,101112.97
2022-10-17T10:05:36.404Z,101114.53
2022-10-17T10:08:12.623Z,101119.00
2022-10-17T10:10:43.201Z,101119.53
2022-10-17T10:13:12.928Z,101110.66
2022-10-17T10:15:42.152Z,101118.31
2022-10-17T10:18:27.140Z,101117.25
2022-10-17T10:21:24.637Z,101113.31
2022-10-17T10:24:17.575Z,101109.81
2022-10-17T10:26:46.857Z,101113.94
2022-10-17T10:29:26.748Z,101116.16
2022-10-17T10:31:53.921Z,101117.88
2022-10-17T10:34:31.347Z,101119.56
2022-10-17T10:37:05.960Z,101120.44
2022-10-17T10:39:38.953Z,101118.88
2022-10-17T10:42:18.614Z,101123.97
2022-10-17T10:44:46.712Z,101122.88
2022-10-17T10:47:26.337Z,101124.72
2022-10-17T10:50:17.536Z,101119.94
2022-10-17T10:53:10.824Z,101113.09
2022-10-17T10:55:58.690Z,101120.59
2022-10-17T10:58:52.713Z,101116.06
2022-10-17T11:01:29.606Z,101123.09
2022-10-17T11:04:01.155Z,101128.31
2022-10-17T11:06:30.532Z,101120.03
2022-10-17T11:09:33.680Z,101126.16
2022-10-17T11:12:45.730Z,101129.06
2022-10-17T11:15:54.475Z,101143.28
2022-10-17T11:18:35.671Z,101141.88
2022-10-17T11:24:34.370Z,101144.25
2022-10-17T11:27:04.349Z,101142.16
2022-10-17T11:29:33.368Z,101143.25
2022-10-17T11:32:15.529Z,101142.16
2022-10-17T11:34:51.437Z,101146.63
2022-10-17T11:37:26.039Z,101149.22
2022-10-17T11:40:21.901Z,101147.28
2022-10-17T11:42:57.162Z,101156.81
2022-10-17T11:45:27.219Z,101150.94
2022-10-17T11:48:10.805Z,101153.63
2022-10-17T11:53:40.680Z,101147.13
2022-10-17T11:56:11.480Z,101141.00
2022-10-17T11:58:54.668Z,101147.72
2022-10-17T12:01:44.203Z,101152.41
2022-10-17T12:04:16.604Z,101148.84
2022-10-17T12:07:04.466Z,101146.28
2022-10-17T12:09:55.282Z,101136.13
2022-10-17T12:12:27.440Z,101140.72
2022-10-17T12:15:14.888Z,101147.41
2022-10-17T12:17:45.918Z,101136.47
2022-10-17T12:20:23.576Z,101135.13
2022-10-17T12:23:10.345Z,101131.63
2022-10-17T12:25:49.485Z,101121.09
2022-10-17T12:28:36.181Z,101127.59
2022-10-17T12:31:29.745Z,101134.88
2022-10-17T12:34:02.982Z,101123.09
2022-10-17T12:36:29.548Z,101131.63
2022-10-17T12:39:02.378Z,101111.44
2022-10-17T12:41:38.042Z,101111.97
2022-10-17T12:44:14.099Z,101102.59
2022-10-17T12:46:44.351Z,101098.53
2022-10-17T12:49:35.885Z,101092.88
2022-10-17T12:52:17.743Z,101105.09
2022-10-17T12:55:12.565Z,101103.16
2022-10-17T12:58:05.075Z,101089.19
2022-10-17T13:01:19.099Z,101114.78
2022-10-17T13:03:46.278Z,101113.47
2022-10-17T13:06:27.912Z,101110.81
2022-10-17T13:09:03.444Z,101112.59
2022-10-17T13:11:34.024Z,101121.88
2022-10-17T13:14:03.468Z,101117.50
2022-10-17T13:16:36.051Z,101114.94
2022-10-17T13:19:12.264Z,101120.13
2022-10-17T13:21:38.971Z,101116.94
2022-10-17T13:24:31.100Z,101107.38
2022-10-17T13:26:58.696Z,101104.41
2022-10-17T13:29:28.744Z,101115.41
2022-10-17T13:32:03.919Z,101120.34
2022-10-17T13:34:32.263Z,101122.63
2022-10-17T13:37:02.892Z,101121.94
2022-10-17T13:39:52.414Z,101134.56
2022-10-17T13:42:27.465Z,101131.72
2022-10-17T13:44:55.228Z,101136.19
2022-10-17T13:47:28.060Z,101144.97
2022-10-17T13:49:55.838Z,101144.59
2022-10-17T13:52:26.480Z,101142.41
2022-10-17T13:54:54.937Z,101148.41
2022-10-17T13:57:23.823Z,101162.63
2022-10-17T13:59:57.704Z,101169.19
2022-10-17T14:02:27.703Z,101176.75
2022-10-17T14:05:22.924Z,101173.63
2022-10-17T14:08:14.516Z,101173.75
2022-10-17T14:10:42.500Z,101178.75
2022-10-17T14:13:22.748Z,101180.16
2022-10-17T14:15:51.377Z,101184.25
2022-10-17T14:18:22.972Z,101180.88
2022-10-17T14:21:34.017Z,101181.59
2022-10-17T14:23:43.723Z,101167.69
2022-10-17T14:26:12.132Z,101184.72
2022-10-17T14:28:40.745Z,101181.50
2022-10-17T14:31:15.354Z,101175.72
2022-10-17T14:33:50.785Z,101179.19
2022-10-17T14:36:19.046Z,101179.94
2022-10-17T14:38:48.368Z,101172.44
2022-10-17T14:41:43.786Z,101170.47
2022-10-17T14:44:23.010Z,101170.50
2022-10-17T14:46:54.690Z,101175.72
2022-10-17T14:49:28.078Z,101194.34
2022-10-17T14:52:25.473Z,101192.53
2022-10-17T14:54:52.127Z,101198.09
2022-10-17T14:57:34.772Z,101206.56
2022-10-17T15:00:01.706Z,101211.16
2022-10-17T15:02:30.254Z,101213.88
2022-10-17T15:04:57.363Z,101214.72
2022-10-17T15:07:24.279Z,101213.81
2022-10-17T15:09:52.438Z,101217.75
2022-10-17T15:12:22.997Z,101221.69
2022-10-17T15:14:50.641Z,101218.13
2022-10-17T15:17:29.041Z,101219.84
2022-10-17T15:19:56.703Z,101227.75
2022-10-17T15:22:23.856Z,101234.41
2022-10-17T15:24:50.648Z,101240.13
2022-10-17T15:27:23.147Z,101238.84
2022-10-17T15:29:50.810Z,101238.88
2022-10-17T15:32:17.557Z,101236.19
2022-10-17T15:34:44.850Z,101232.69
2022-10-17T15:37:23.154Z,101229.94
2022-10-17T15:39:54.084Z,101236.50
2022-10-17T15:42:23.468Z,101236.03
2022-10-17T15:44:50.359Z,101236.69
2022-10-17T15:47:28.991Z,101246.47
2022-10-17T15:49:55.995Z,101244.06
2022-10-17T15:52:23.650Z,101241.91
2022-10-17T15:54:50.386Z,101239.13
2022-10-17T15:57:21.068Z,101249.56
2022-10-17T15:59:49.243Z,101243.72
2022-10-17T16:02:18.252Z,101250.00
2022-10-17T16:04:45.201Z,101245.69
2022-10-17T16:07:11.835Z,101263.31
2022-10-17T16:09:38.655Z,101272.09
2022-10-17T16:12:07.013Z,101264.97
2022-10-17T16:14:33.638Z,101277.19
2022-10-17T16:17:00.656Z,101279.16
2022-10-17T16:19:29.913Z,101281.09
2022-10-17T16:21:59.645Z,101294.50
2022-10-17T16:24:28.863Z,101290.00
2022-10-17T16:26:55.546Z,101283.94
2022-10-17T16:29:22.145Z,101294.19
2022-10-17T16:31:48.754Z,101285.34
2022-10-17T16:34:16.016Z,101296.09
2022-10-17T16:36:42.771Z,101295.75
2022-10-17T16:39:09.662Z,101297.66
2022-10-17T16:41:39.323Z,101301.66
2022-10-17T16:44:13.004Z,101306.31
2022-10-17T16:46:39.620Z,101299.91
2022-10-17T16:49:07.382Z,101310.84
2022-10-17T16:51:35.944Z,101313.00
2022-10-17T16:54:04.528Z,101319.34
2022-10-17T16:56:32.769Z,101313.63
2022-10-17T16:59:01.076Z,101309.50
2022-10-17T17:01:31.566Z,101319.97
2022-10-17T17:03:58.661Z,101316.25
2022-10-17T17:06:28.761Z,101322.28
2022-10-17T17:08:56.398Z,101319.72
2022-10-17T17:11:25.311Z,101325.94
2022-10-17T17:13:52.234Z,101323.25
2022-10-17T17:16:23.851Z,101321.03
2022-10-17T17:18:55.343Z,101338.91
2022-10-17T17:21:22.146Z,101341.91
2022-10-17T17:23:48.782Z,101335.03
2022-10-17T17:26:22.200Z,101345.78
2022-10-17T17:28:50.045Z,101343.22
2022-10-17T17:31:20.508Z,101348.03
2022-10-17T17:33:47.335Z,101350.06
2022-10-17T17:36:19.193Z,101343.06
2022-10-17T17:38:47.304Z,101347.97
2022-10-17T17:41:15.364Z,101349.50
2022-10-17T17:43:42.875Z,101345.09
2022-10-17T17:46:09.887Z,101348.75
2022-10-17T17:48:40.943Z,101345.44
2022-10-17T17:51:09.173Z,101363.97
2022-10-17T17:53:37.112Z,101356.22
2022-10-17T17:56:11.630Z,101365.34
2022-10-17T17:58:38.330Z,101367.09
2022-10-17T18:01:15.130Z,101374.47
2022-10-17T18:03:41.948Z,101367.13
2022-10-17T18:06:08.797Z,101367.84
2022-10-17T18:08:35.852Z,101371.97
2022-10-17T18:11:03.184Z,101374.66
2022-10-17T18:13:29.859Z,101385.41
2022-10-17T18:15:58.248Z,101380.34
2022-10-17T18:18:26.569Z,101381.81
2022-10-17T18:20:54.371Z,101375.88
2022-10-17T18:23:21.693Z,101380.06
2022-10-17T18:25:55.959Z,101390.25
2022-10-17T18:28:23.645Z,101372.50
2022-10-17T18:30:50.572Z,101373.22
2022-10-17T18:33:17.249Z,101378.28
2022-10-17T18:35:43.951Z,101384.50
2022-10-17T18:38:10.600Z,101399.69
2022-10-17T18:40:37.418Z,101400.22
2022-10-17T18:43:04.143Z,101405.47
2022-10-17T18:45:30.792Z,101398.75
2022-10-17T18:47:57.475Z,101402.06
2022-10-17T18:50:25.053Z,101408.72
2022-10-17T18:52:51.770Z,101406.13
2022-10-17T18:55:20.532Z,101420.53
2022-10-17T18:57:49.294Z,101414.31
2022-10-17T19:00:16.994Z,101411.34
2022-10-17T19:02:43.662Z,101413.13
2022-10-17T19:05:10.673Z,101413.81
2022-10-17T19:07:37.271Z,101423.50
2022-10-17T19:10:04.069Z,101425.88
2022-10-17T19:12:30.800Z,101425.09
2022-10-17T19:14:57.427Z,101432.53
2022-10-17T19:17:24.062Z,101429.13
2022-10-17T19:19:52.346Z,101427.53
2022-10-17T19:22:19.172Z,101430.06
2022-10-17T19:24:45.744Z,101443.41
2022-10-17T19:27:12.394Z,101435.97
2022-10-17T19:29:43.436Z,101429.94
2022-10-17T19:32:15.696Z,101429.09
2022-10-17T19:34:44.831Z,101429.13
2022-10-17T19:37:11.412Z,101426.72
2022-10-17T19:39:38.215Z,101423.91
2022-10-17T19:42:06.871Z,101438.50
2022-10-17T19:44:34.664Z,101438.72
2022-10-17T19:47:01.236Z,101429.28
2022-10-17T19:49:28.029Z,101423.28
2022-10-17T19:51:54.574Z,101431.66
2022-10-17T19:54:21.215Z,101430.06
2022-10-17T19:56:48.566Z,101434.25
2022-10-17T19:59:16.458Z,101435.59
2022-10-17T20:01:44.298Z,101436.66
2022-10-17T20:04:11.725Z,101436.28
2022-10-17T20:06:38.815Z,101444.19
2022-10-17T20:09:06.867Z,101446.91
2022-10-17T20:11:35.247Z,101456.50
2022-10-17T20:14:02.011Z,101458.06
2022-10-17T20:16:31.472Z,101465.34
2022-10-17T20:19:03.986Z,101467.47
2022-10-17T20:21:32.970Z,101471.34
2022-10-17T20:24:00.174Z,101469.84
2022-10-17T20:26:42.851Z,101474.13
2022-10-17T20:29:15.961Z,101482.63
2022-10-17T20:31:44.564Z,101483.69
2022-10-17T20:34:16.090Z,101488.66
2022-10-17T20:36:43.044Z,101491.94
2022-10-17T20:39:12.139Z,101496.47
2022-10-17T20:41:38.797Z,101501.38
2022-10-17T20:44:06.951Z,101495.56
2022-10-17T20:46:37.834Z,101507.41
2022-10-17T20:49:08.027Z,101515.28
2022-10-17T20:51:35.545Z,101519.88
2022-10-17T20:54:03.265Z,101524.81
2022-10-17T20:56:31.705Z,101531.59
2022-10-17T20:59:01.449Z,101536.63
2022-10-17T21:01:29.640Z,101545.22
2022-10-17T21:03:59.635Z,101548.84
2022-10-17T21:06:27.870Z,101553.72
2022-10-17T21:08:55.676Z,101555.13
2022-10-17T21:11:24.660Z,101551.25
2022-10-17T21:14:05.553Z,101558.63
2022-10-17T21:16:37.245Z,101558.75
2022-10-17T21:19:05.488Z,101556.69
2022-10-17T21:21:34.698Z,101564.53
2022-10-17T21:24:04.949Z,101565.00
2022-10-17T21:26:36.400Z,101563.47
2022-10-17T21:29:06.005Z,101563.44
2022-10-17T21:31:37.922Z,101556.91
2022-10-17T21:34:10.049Z,101545.31
2022-10-17T21:36:36.860Z,101539.28
2022-10-17T21:39:04.269Z,101544.19
2022-10-17T21:41:31.495Z,101539.72
2022-10-17T21:44:04.327Z,101543.66
2022-10-17T21:46:31.833Z,101543.69
2022-10-17T21:48:59.564Z,101534.16
2022-10-17T21:51:27.348Z,101545.53
2022-10-17T21:53:56.096Z,101544.47
2022-10-17T21:56:25.192Z,101549.19
2022-10-17T21:58:51.828Z,101556.13
2022-10-17T22:01:22.704Z,101569.31
2022-10-17T22:03:51.928Z,101566.81
2022-10-17T22:09:17.295Z,101569.41
2022-10-17T22:11:49.010Z,101572.78
2022-10-17T22:14:18.555Z,101579.38
2022-10-17T22:16:46.611Z,101575.03
2022-10-17T22:19:16.210Z,101583.84
2022-10-17T22:21:42.876Z,101586.56
2022-10-17T22:24:12.020Z,101587.31
2022-10-17T22:26:39.211Z,101584.63
2022-10-17T22:29:08.129Z,101594.03
2022-10-17T22:31:35.665Z,101583.88
2022-10-17T22:34:03.567Z,101585.97
2022-10-17T22:36:32.545Z,101584.44
2022-10-17T22:38:59.181Z,101587.22
2022-10-17T22:41:25.821Z,101590.38
2022-10-17T22:43:52.463Z,101585.22
2022-10-17T22:46:19.114Z,101586.19
2022-10-17T22:48:45.954Z,101583.50
2022-10-17T22:51:13.378Z,101591.94
2022-10-17T22:53:40.106Z,101587.16
2022-10-17T22:56:13.721Z,101596.50
2022-10-17T22:58:41.019Z,101588.28
2022-10-17T23:01:10.142Z,101597.09
2022-10-17T23:03:36.909Z,101591.03
2022-10-17T23:06:03.839Z,101584.34
2022-10-17T23:08:31.082Z,101582.97
2022-10-17T23:10:57.921Z,101590.75
2022-10-17T23:13:24.643Z,101589.59
2022-10-17T23:15:52.959Z,101592.09
2022-10-17T23:18:20.427Z,101584.09
2022-10-17T23:20:47.341Z,101591.16
2022-10-17T23:23:14.492Z,101590.56
2022-10-17T23:25:41.543Z,101592.50
2022-10-17T23:28:08.788Z,101603.63
2022-10-17T23:30:36.203Z,101612.69
2022-10-17T23:33:03.131Z,101601.31
2022-10-17T23:35:29.796Z,101607.44
2022-10-17T23:37:56.575Z,101604.78
2022-10-17T23:40:23.266Z,101604.97
2022-10-17T23:42:49.976Z,101603.41
2022-10-17T23:45:16.750Z,101615.88
2022-10-17T23:47:43.373Z,101616.28
2022-10-17T23:50:10.053Z,101612.03
2022-10-17T23:52:36.729Z,101626.59
2022-10-17T23:55:04.355Z,101631.41
2022-10-17T23:57:31.143Z,101631.81
2022-10-17T23:59:57.823Z,101631.03
